Time;durP1;ratioP1;P1;durP2;ratioP2;P2;SDS_P1;SDS_P2;PMS_P1;PMS_P2;Temp;Humidity;BMP_temperature;BMP_pressure;BME280_temperature;BME280_humidity;BME280_pressure;Samples;Min_cycle;Max_cycle;Signal;HPM_P1;HPM_P2
2022/05/21 00:01:55;;;;;;;19.38;11.52;;;12.40;99.90;;;;;;5038681;28;20451;-73
2022/05/21 00:04:21;;;;;;;14.40;11.15;;;12.30;99.90;;;;;;5038237;28;20080;-73
2022/05/21 00:06:47;;;;;;;14.52;10.77;;;12.40;99.90;;;;;;5037822;28;20018;-73
2022/05/21 00:09:13;;;;;;;15.27;10.95;;;12.40;99.90;;;;;;5037284;28;20021;-73
2022/05/21 00:11:38;;;;;;;13.75;10.43;;;12.40;99.90;;;;;;5038464;28;20075;-74
2022/05/21 00:14:04;;;;;;;17.42;9.85;;;12.40;99.90;;;;;;5037157;28;20032;-74
2022/05/21 00:16:30;;;;;;;13.30;9.65;;;12.40;99.90;;;;;;5037431;28;20038;-74
2022/05/21 00:18:57;;;;;;;16.75;9.25;;;12.40;99.90;;;;;;5037416;28;20463;-74
2022/05/21 00:21:23;;;;;;;10.30;8.13;;;12.40;99.90;;;;;;5020065;28;20026;-74
2022/05/21 00:23:50;;;;;;;13.77;8.88;;;12.40;99.90;;;;;;5037587;28;20018;-73
2022/05/21 00:26:16;;;;;;;12.20;9.20;;;12.40;99.90;;;;;;5037449;28;20479;-73
2022/05/21 00:28:44;;;;;;;12.20;8.40;;;12.40;99.90;;;;;;5037459;28;20026;-74
2022/05/21 00:31:15;;;;;;;11.98;7.63;;;12.30;99.90;;;;;;5037567;28;20486;-74
2022/05/21 00:33:41;;;;;;;16.02;8.32;;;12.30;99.90;;;;;;5020368;28;20080;-74
2022/05/21 00:36:08;;;;;;;13.07;7.90;;;12.30;99.90;;;;;;5038536;28;20474;-74
2022/05/21 00:38:35;;;;;;;13.18;7.60;;;12.30;99.90;;;;;;5038496;28;20029;-74
2022/05/21 00:41:01;;;;;;;15.95;7.55;;;12.30;99.90;;;;;;5037774;28;20045;-74
2022/05/21 00:43:57;;;;;;;12.32;7.60;;;12.30;99.90;;;;;;5037294;28;20129;-74
2022/05/21 00:46:25;;;;;;;10.75;7.13;;;12.30;99.90;;;;;;5037942;28;20445;-75
2022/05/21 00:49:03;;;;;;;9.48;6.47;;;12.20;99.90;;;;;;5037873;28;20108;-74
2022/05/21 00:51:34;;;;;;;8.23;6.40;;;12.20;99.90;;;;;;5037822;28;20026;-74
2022/05/21 00:54:02;;;;;;;11.82;5.85;;;12.20;99.90;;;;;;5037459;28;20033;-74
2022/05/21 00:56:30;;;;;;;9.73;6.07;;;12.10;99.90;;;;;;5019149;28;20402;-74
2022/05/21 01:01:48;;;;;;;9.13;6.13;;;12.00;99.90;;;;;;5037684;28;20040;-75
2022/05/21 01:04:13;;;;;;;8.60;6.63;;;12.00;99.90;;;;;;5036861;28;20017;-75
2022/05/21 01:06:39;;;;;;;9.60;6.78;;;12.00;99.90;;;;;;5037077;28;20028;-74
2022/05/21 01:09:05;;;;;;;11.95;6.57;;;11.90;99.90;;;;;;5037179;28;20032;-75
2022/05/21 01:11:31;;;;;;;9.55;6.63;;;11.90;99.90;;;;;;5019732;28;20126;-75
2022/05/21 01:13:58;;;;;;;9.77;7.03;;;11.90;99.90;;;;;;5036824;28;20029;-74
2022/05/21 01:16:24;;;;;;;9.70;6.47;;;11.90;99.90;;;;;;5038000;28;20375;-74
2022/05/21 01:18:50;;;;;;;13.40;7.10;;;11.90;99.90;;;;;;5037757;28;20024;-74
2022/05/21 01:21:15;;;;;;;10.63;7.20;;;11.90;99.90;;;;;;5037311;28;20025;-74
2022/05/21 01:23:41;;;;;;;13.05;7.38;;;11.90;99.90;;;;;;5036780;28;20466;-74
2022/05/21 01:26:20;;;;;;;9.82;7.55;;;11.90;99.90;;;;;;5037487;28;20028;-74
2022/05/21 01:28:46;;;;;;;7.78;6.97;;;11.90;99.90;;;;;;5037093;28;20036;-74
2022/05/21 01:31:12;;;;;;;13.27;6.90;;;11.90;99.90;;;;;;5018200;28;20459;-74
2022/05/21 01:33:41;;;;;;;11.30;7.35;;;11.90;99.90;;;;;;5036118;28;20033;-73
2022/05/21 01:36:08;;;;;;;11.73;6.78;;;11.90;99.90;;;;;;5018187;28;20039;-74
2022/05/21 01:38:36;;;;;;;12.88;6.63;;;11.90;99.90;;;;;;5036536;28;20021;-74
2022/05/21 01:41:02;;;;;;;10.38;7.30;;;11.90;99.90;;;;;;5036632;28;20405;-74
2022/05/21 01:46:14;;;;;;;9.27;7.43;;;11.90;99.90;;;;;;5037047;28;20421;-74
2022/05/21 01:48:40;;;;;;;12.82;7.43;;;11.90;99.90;;;;;;5036500;28;20420;-75
2022/05/21 01:51:06;;;;;;;12.05;7.60;;;11.90;99.90;;;;;;5036003;28;20033;-73
2022/05/21 01:53:33;;;;;;;10.73;7.25;;;11.90;99.90;;;;;;5035422;28;20030;-73
2022/05/21 01:56:00;;;;;;;9.10;6.95;;;11.90;99.90;;;;;;5035824;28;20037;-73
2022/05/21 01:58:27;;;;;;;11.05;7.40;;;11.90;99.90;;;;;;5035532;28;20040;-74
2022/05/21 02:00:52;;;;;;;14.40;7.00;;;11.90;99.90;;;;;;5035722;28;20030;-75
2022/05/21 02:03:18;;;;;;;11.52;7.80;;;12.00;99.90;;;;;;5018101;28;20390;-74
2022/05/21 02:05:46;;;;;;;12.10;7.57;;;12.00;99.90;;;;;;5036034;28;20030;-74
2022/05/21 02:08:13;;;;;;;10.63;7.03;;;12.00;99.90;;;;;;5037008;28;20037;-74
2022/05/21 02:10:40;;;;;;;11.82;8.10;;;12.00;99.90;;;;;;5037085;28;20022;-74
2022/05/21 02:13:06;;;;;;;14.10;8.80;;;12.00;99.90;;;;;;5037436;28;20052;-74
2022/05/21 02:15:32;;;;;;;10.25;9.20;;;12.00;99.90;;;;;;5038105;28;20414;-74
2022/05/21 02:17:58;;;;;;;16.70;9.15;;;12.10;99.90;;;;;;5036801;28;20478;-73
2022/05/21 02:20:23;;;;;;;11.57;8.77;;;12.00;99.90;;;;;;5034720;28;20030;-73
2022/05/21 02:22:49;;;;;;;12.75;9.45;;;12.00;99.90;;;;;;5035625;28;20033;-74
2022/05/21 02:25:16;;;;;;;18.58;10.05;;;11.90;99.90;;;;;;5035951;28;20361;-74
2022/05/21 02:27:43;;;;;;;15.23;9.70;;;12.00;99.90;;;;;;5036185;28;20052;-74
2022/05/21 02:30:09;;;;;;;15.05;9.38;;;12.00;99.90;;;;;;5035824;28;20065;-74
2022/05/21 02:32:34;;;;;;;13.02;8.57;;;12.00;99.90;;;;;;5036172;28;20088;-75
2022/05/21 02:35:00;;;;;;;15.73;9.75;;;12.00;99.90;;;;;;5035647;28;20021;-74
2022/05/21 02:40:10;;;;;;;15.82;9.23;;;12.10;99.90;;;;;;5036514;28;20051;-75
2022/05/21 02:42:45;;;;;;;13.50;9.82;;;12.10;99.90;;;;;;5036200;28;20045;-75
2022/05/21 02:45:14;;;;;;;15.13;10.15;;;12.10;99.90;;;;;;5035483;28;20028;-74
2022/05/21 02:47:40;;;;;;;13.88;9.52;;;12.10;99.90;;;;;;5035634;28;20437;-74
2022/05/21 02:50:07;;;;;;;15.57;9.95;;;12.00;99.90;;;;;;5035290;28;20037;-74
2022/05/21 02:52:33;;;;;;;17.85;10.38;;;12.00;99.90;;;;;;5035054;28;20486;-75
2022/05/21 02:54:58;;;;;;;17.15;10.48;;;12.00;99.90;;;;;;5072423;22;20548;-75
2022/05/21 02:57:24;;;;;;;17.27;11.05;;;12.10;99.90;;;;;;5018999;28;20379;-74
2022/05/21 02:59:51;;;;;;;14.90;10.38;;;12.00;99.90;;;;;;5036694;28;20413;-74
2022/05/21 03:02:18;;;;;;;15.95;10.57;;;12.00;99.90;;;;;;5037746;28;20029;-74
2022/05/21 03:04:44;;;;;;;16.67;11.25;;;12.00;99.90;;;;;;5037047;28;20081;-74
2022/05/21 03:07:10;;;;;;;14.45;11.05;;;12.00;99.90;;;;;;5035447;28;20049;-74
2022/05/21 03:12:19;;;;;;;19.20;12.02;;;12.00;99.90;;;;;;5036998;28;20072;-74
2022/05/21 03:14:45;;;;;;;19.33;12.02;;;12.00;99.90;;;;;;5036551;28;20029;-74
2022/05/21 03:17:11;;;;;;;21.50;12.98;;;12.00;99.90;;;;;;5036980;28;20036;-74
2022/05/21 03:19:38;;;;;;;18.33;12.57;;;12.00;99.90;;;;;;5019284;28;20091;-74
2022/05/21 03:22:04;;;;;;;23.33;14.20;;;12.00;99.90;;;;;;5036853;28;20021;-76
2022/05/21 03:24:29;;;;;;;19.73;13.35;;;12.10;99.90;;;;;;5037347;28;20032;-74
2022/05/21 03:26:55;;;;;;;24.27;15.38;;;12.10;99.90;;;;;;5018961;28;20474;-74
2022/05/21 03:29:21;;;;;;;20.25;14.18;;;12.20;99.90;;;;;;5037349;28;20025;-75
2022/05/21 03:31:47;;;;;;;21.58;14.93;;;12.20;99.90;;;;;;5036569;28;20103;-75
2022/05/21 03:34:13;;;;;;;26.90;15.20;;;12.20;99.90;;;;;;5017840;28;20478;-75
2022/05/21 03:36:38;;;;;;;29.00;16.70;;;12.30;99.90;;;;;;5036838;28;20382;-75
2022/05/21 03:39:04;;;;;;;30.02;16.73;;;12.30;99.90;;;;;;5037026;28;20044;-75
2022/05/21 03:41:30;;;;;;;30.05;17.58;;;12.30;99.90;;;;;;5036985;28;20018;-75
2022/05/21 03:43:57;;;;;;;29.38;18.48;;;12.40;99.90;;;;;;5037437;28;20021;-75
2022/05/21 03:46:22;;;;;;;24.92;18.58;;;12.40;99.90;;;;;;5037846;28;20398;-75
2022/05/21 03:48:48;;;;;;;30.15;18.55;;;12.50;99.90;;;;;;5039967;28;20028;-74
2022/05/21 03:51:14;;;;;;;31.40;19.77;;;12.50;99.90;;;;;;5039229;28;20100;-73
2022/05/21 03:53:40;;;;;;;38.38;19.70;;;12.60;99.90;;;;;;5040809;28;20033;-74
2022/05/21 03:56:06;;;;;;;33.40;20.95;;;12.60;99.90;;;;;;5043821;28;20104;-74
2022/05/21 03:58:33;;;;;;;31.20;21.20;;;12.60;99.90;;;;;;5051352;28;20035;-74
2022/05/21 04:00:58;;;;;;;31.58;21.35;;;12.60;99.90;;;;;;5025217;28;20026;-73
2022/05/21 04:03:25;;;;;;;34.65;22.05;;;12.70;99.90;;;;;;5043542;28;20034;-75
2022/05/21 04:05:54;;;;;;;32.00;22.38;;;12.70;99.90;;;;;;5043705;28;20028;-73
2022/05/21 04:08:20;;;;;;;32.58;21.80;;;12.70;99.90;;;;;;5050256;28;20021;-73
2022/05/21 04:10:46;;;;;;;34.80;22.48;;;12.80;99.90;;;;;;5038896;28;20038;-74
2022/05/21 04:13:12;;;;;;;37.42;24.17;;;12.80;99.90;;;;;;5036572;28;20430;-75
2022/05/21 04:15:38;;;;;;;35.85;24.15;;;12.80;99.90;;;;;;5018224;28;20029;-74
2022/05/21 04:18:04;;;;;;;38.10;26.15;;;12.90;99.90;;;;;;5017954;28;20033;-74
2022/05/21 04:20:30;;;;;;;40.83;25.25;;;12.90;99.90;;;;;;5036239;28;20076;-75
2022/05/21 04:22:55;;;;;;;43.03;26.55;;;12.90;99.90;;;;;;5036333;28;20044;-74
2022/05/21 04:25:24;;;;;;;50.20;29.83;;;12.90;99.90;;;;;;5035647;28;20014;-75
2022/05/21 04:27:50;;;;;;;44.50;29.17;;;12.90;99.90;;;;;;5035885;28;20017;-74
2022/05/21 04:30:19;;;;;;;49.63;28.80;;;12.80;99.90;;;;;;5036169;28;20382;-74
2022/05/21 04:32:46;;;;;;;48.78;30.02;;;12.80;99.90;;;;;;5018244;28;20499;-74
2022/05/21 04:35:13;;;;;;;47.03;30.00;;;12.80;99.90;;;;;;5036077;28;20071;-74
2022/05/21 04:37:39;;;;;;;50.38;30.50;;;12.80;99.90;;;;;;5035561;28;20048;-74
2022/05/21 04:40:08;;;;;;;48.30;30.70;;;12.90;99.90;;;;;;5036154;28;20475;-74
2022/05/21 04:42:33;;;;;;;49.08;30.35;;;12.90;99.90;;;;;;5017268;28;20068;-74
2022/05/21 04:44:59;;;;;;;48.90;31.40;;;12.90;99.90;;;;;;5037901;28;20026;-74
2022/05/21 04:47:25;;;;;;;49.67;30.92;;;12.90;99.90;;;;;;5040117;28;20026;-74
2022/05/21 04:49:51;;;;;;;46.08;29.40;;;12.90;99.90;;;;;;5041087;28;20540;-74
2022/05/21 04:52:16;;;;;;;44.70;29.83;;;13.00;99.90;;;;;;5039338;28;20029;-75
2022/05/21 04:54:42;;;;;;;45.20;30.73;;;13.00;99.90;;;;;;5039844;28;20048;-75
2022/05/21 04:57:07;;;;;;;50.50;30.30;;;13.00;99.90;;;;;;5040086;28;20033;-75
2022/05/21 04:59:33;;;;;;;44.88;30.35;;;13.00;99.90;;;;;;5038634;28;20390;-74
2022/05/21 05:01:59;;;;;;;49.70;30.65;;;13.00;99.90;;;;;;5023079;28;20436;-74
2022/05/21 05:04:25;;;;;;;46.63;30.40;;;13.10;99.90;;;;;;5051488;28;20028;-74
2022/05/21 05:06:50;;;;;;;46.60;27.85;;;13.10;99.90;;;;;;5042516;28;20029;-74
2022/05/21 05:09:19;;;;;;;45.33;30.15;;;13.10;99.90;;;;;;5040125;28;20029;-74
2022/05/21 05:11:46;;;;;;;44.20;28.90;;;13.20;99.90;;;;;;5039244;28;20025;-75
2022/05/21 05:14:11;;;;;;;46.08;30.77;;;13.20;99.90;;;;;;5039867;28;20029;-74
2022/05/21 05:16:37;;;;;;;43.05;29.80;;;13.10;99.90;;;;;;5021901;28;20056;-74
2022/05/21 05:19:03;;;;;;;43.80;29.50;;;13.20;99.90;;;;;;5039175;28;20116;-75
2022/05/21 05:21:28;;;;;;;43.30;28.20;;;13.20;99.90;;;;;;5039705;28;20021;-75
2022/05/21 05:23:54;;;;;;;46.65;28.08;;;13.20;99.90;;;;;;5022019;28;20048;-75
2022/05/21 05:26:22;;;;;;;41.88;29.27;;;13.20;99.90;;;;;;5022812;28;20335;-75
2022/05/21 05:28:48;;;;;;;48.25;29.20;;;13.20;99.90;;;;;;5039324;28;20387;-75
2022/05/21 05:31:14;;;;;;;47.25;29.63;;;13.20;99.90;;;;;;5039528;28;20029;-75
2022/05/21 05:33:39;;;;;;;42.85;29.33;;;13.30;99.90;;;;;;5038939;28;20021;-75
2022/05/21 05:36:05;;;;;;;48.53;30.00;;;13.30;99.90;;;;;;5040287;28;20052;-75
2022/05/21 05:38:31;;;;;;;49.28;31.08;;;13.30;99.90;;;;;;5039799;28;20104;-75
2022/05/21 05:40:56;;;;;;;50.05;30.75;;;13.40;99.90;;;;;;5040168;28;20024;-75
2022/05/21 05:43:22;;;;;;;43.50;28.13;;;13.40;99.90;;;;;;5038915;28;20021;-76
2022/05/21 05:45:49;;;;;;;47.30;29.73;;;13.50;99.90;;;;;;5022442;28;20045;-75
2022/05/21 05:48:15;;;;;;;44.25;28.13;;;13.70;99.90;;;;;;5040453;28;20025;-75
2022/05/21 05:50:41;;;;;;;46.28;29.15;;;13.80;99.90;;;;;;5040194;28;20111;-75
2022/05/21 05:53:07;;;;;;;42.47;27.02;;;13.80;99.90;;;;;;5039884;28;20113;-75
2022/05/21 05:55:35;;;;;;;37.90;26.70;;;13.90;99.90;;;;;;5039694;28;20048;-75
2022/05/21 05:59:48;;;;;;;36.28;25.75;;;13.90;99.90;;;;;;5039636;28;20085;-75
2022/05/21 06:00:46;;;;;;;39.08;25.38;;;14.00;99.90;;;;;;5039188;28;20089;-75
2022/05/21 06:03:12;;;;;;;34.75;25.35;;;14.10;99.90;;;;;;5039407;28;20520;-75
2022/05/21 06:05:37;;;;;;;32.50;24.08;;;14.20;99.90;;;;;;5039834;28;20040;-75
2022/05/21 06:08:05;;;;;;;39.15;23.88;;;14.20;99.90;;;;;;5022028;28;20399;-73
2022/05/21 06:10:31;;;;;;;35.45;23.63;;;14.20;99.90;;;;;;5049493;28;20021;-74
2022/05/21 06:12:57;;;;;;;36.85;22.42;;;14.30;99.90;;;;;;5032427;28;20035;-74
2022/05/21 06:15:23;;;;;;;32.88;20.13;;;14.40;99.90;;;;;;5040280;28;20026;-74
2022/05/21 06:17:52;;;;;;;38.50;22.38;;;14.40;99.90;;;;;;5038452;28;20025;-75
2022/05/21 06:20:20;;;;;;;34.97;21.98;;;14.40;99.90;;;;;;5038087;28;20032;-74
2022/05/21 06:22:46;;;;;;;32.42;21.10;;;14.40;99.90;;;;;;5020202;28;20025;-75
2022/05/21 06:25:17;;;;;;;33.95;20.42;;;14.40;99.90;;;;;;5019998;28;20089;-75
2022/05/21 06:27:44;;;;;;;34.65;20.92;;;14.40;99.90;;;;;;5020786;28;20372;-75
2022/05/21 06:30:09;;;;;;;31.52;19.45;;;14.50;99.90;;;;;;5038604;28;20029;-75
2022/05/21 06:32:35;;;;;;;32.50;18.20;;;14.50;99.90;;;;;;5038938;28;20081;-75
2022/05/21 06:35:03;;;;;;;37.78;18.88;;;14.60;99.90;;;;;;5038366;28;20025;-74
2022/05/21 06:37:29;;;;;;;31.05;19.15;;;14.60;99.90;;;;;;5037826;28;20022;-74
2022/05/21 06:39:54;;;;;;;27.55;17.75;;;14.60;99.90;;;;;;5037529;28;20083;-75
2022/05/21 06:42:20;;;;;;;28.25;16.65;;;14.70;99.90;;;;;;5019317;28;20382;-74
2022/05/21 06:44:45;;;;;;;25.10;15.98;;;14.80;99.90;;;;;;5037079;28;20032;-74
2022/05/21 06:47:11;;;;;;;27.08;15.65;;;14.90;99.90;;;;;;5038030;28;20120;-74
2022/05/21 06:49:37;;;;;;;24.77;15.38;;;15.00;99.90;;;;;;5037182;28;20021;-75
2022/05/21 06:52:04;;;;;;;21.45;15.10;;;15.10;99.90;;;;;;5037779;28;20079;-75
2022/05/21 06:54:29;;;;;;;27.77;14.57;;;15.20;99.90;;;;;;5038532;28;20080;-74
2022/05/21 06:56:55;;;;;;;19.30;12.68;;;15.30;99.90;;;;;;5020633;28;20033;-74
2022/05/21 06:59:21;;;;;;;23.25;13.32;;;15.40;99.90;;;;;;5037940;28;20499;-74
2022/05/21 07:01:47;;;;;;;20.48;11.20;;;15.60;99.90;;;;;;5037834;28;20024;-75
2022/05/21 07:04:16;;;;;;;20.98;11.05;;;15.60;99.90;;;;;;5019358;28;20059;-76
2022/05/21 07:09:27;;;;;;;22.48;9.60;;;15.70;99.90;;;;;;5037598;28;20028;-75
2022/05/21 07:11:53;;;;;;;14.10;9.95;;;15.60;99.90;;;;;;5037367;28;20390;-76
2022/05/21 07:14:19;;;;;;;24.33;10.45;;;15.60;99.90;;;;;;5037032;28;20025;-75
2022/05/21 07:16:48;;;;;;;14.00;8.25;;;15.70;99.90;;;;;;5029926;28;20029;-75
2022/05/21 07:19:14;;;;;;;15.73;7.95;;;15.80;99.90;;;;;;5048295;28;20038;-75
2022/05/21 07:21:40;;;;;;;16.05;7.13;;;15.80;99.90;;;;;;5037671;28;20026;-76
2022/05/21 07:24:06;;;;;;;13.73;6.57;;;15.90;99.90;;;;;;5018928;28;20410;-75
2022/05/21 07:26:31;;;;;;;13.63;6.53;;;15.80;99.90;;;;;;5037697;28;20025;-76
2022/05/21 07:28:58;;;;;;;12.52;6.13;;;15.90;99.90;;;;;;5037762;28;20029;-75
2022/05/21 07:31:24;;;;;;;13.65;5.82;;;16.00;99.90;;;;;;5039234;28;20021;-76
2022/05/21 07:33:50;;;;;;;12.18;4.80;;;16.10;99.90;;;;;;5022177;28;20021;-77
2022/05/21 07:36:15;;;;;;;11.55;4.85;;;16.30;99.90;;;;;;5021381;28;20100;-77
2022/05/21 07:38:41;;;;;;;11.18;4.20;;;16.30;99.90;;;;;;5039819;28;20430;-77
2022/05/21 07:41:07;;;;;;;10.27;3.42;;;16.30;99.90;;;;;;5022150;28;20439;-77
2022/05/21 07:43:33;;;;;;;12.25;3.50;;;16.50;99.90;;;;;;5041389;28;20071;-77
2022/05/21 07:46:01;;;;;;;12.30;3.72;;;16.70;99.90;;;;;;5022143;28;20049;-77
2022/05/21 07:48:28;;;;;;;7.78;3.38;;;16.80;99.90;;;;;;5032369;28;20022;-77
2022/05/21 07:50:58;;;;;;;8.15;3.28;;;16.80;99.90;;;;;;5054863;28;20032;-77
2022/05/21 07:53:38;;;;;;;8.35;3.75;;;16.70;99.90;;;;;;5049870;28;20037;-78
2022/05/21 07:56:04;;;;;;;14.77;4.03;;;16.60;99.90;;;;;;5045667;28;20514;-77
2022/05/21 07:58:32;;;;;;;12.15;4.10;;;16.50;99.90;;;;;;5041657;28;20033;-76
2022/05/21 08:00:58;;;;;;;9.90;4.22;;;16.50;99.90;;;;;;5023588;28;20158;-76
2022/05/21 08:03:24;;;;;;;12.65;4.38;;;16.60;99.90;;;;;;5040753;28;20075;-73
2022/05/21 08:05:50;;;;;;;12.23;3.47;;;16.70;99.90;;;;;;5041158;28;20035;-74
2022/05/21 08:08:16;;;;;;;13.65;4.13;;;16.60;99.90;;;;;;5038654;28;20018;-75
2022/05/21 08:10:44;;;;;;;9.07;3.28;;;16.50;99.90;;;;;;5009234;28;20029;-74
2022/05/21 08:13:11;;;;;;;12.48;2.88;;;16.50;99.90;;;;;;5013694;28;20506;-75
2022/05/21 08:15:37;;;;;;;11.30;3.40;;;16.50;99.90;;;;;;5025310;28;20022;-74
2022/05/21 08:18:04;;;;;;;6.53;2.70;;;16.60;99.90;;;;;;5028664;28;20021;-74
2022/05/21 08:20:31;;;;;;;7.40;3.03;;;16.70;99.90;;;;;;5047476;28;20017;-74
2022/05/21 08:28:25;;;;;;;6.50;2.38;;;16.80;99.90;;;;;;5020297;28;20048;-74
2022/05/21 08:30:51;;;;;;;12.57;2.65;;;16.90;99.90;;;;;;5019732;28;20471;-74
2022/05/21 08:33:18;;;;;;;9.13;2.10;;;17.00;99.90;;;;;;5020310;28;20026;-74
2022/05/21 08:35:44;;;;;;;11.57;2.92;;;17.00;99.90;;;;;;5002622;28;20069;-74
2022/05/21 08:38:11;;;;;;;9.90;2.53;;;16.90;99.90;;;;;;5018768;28;20368;-74
2022/05/21 08:40:55;;;;;;;6.40;2.60;;;16.90;99.90;;;;;;5020531;28;20025;-74
2022/05/21 08:43:25;;;;;;;4.45;2.13;;;16.90;99.90;;;;;;5001874;28;20018;-74
2022/05/21 08:46:19;;;;;;;7.95;2.38;;;16.90;99.90;;;;;;5020141;28;20026;-74
2022/05/21 08:48:55;;;;;;;8.80;3.13;;;17.10;99.90;;;;;;5019097;28;20029;-74
2022/05/21 08:51:23;;;;;;;11.27;2.58;;;17.30;99.90;;;;;;5020303;28;20029;-74
2022/05/21 08:53:50;;;;;;;7.38;3.03;;;17.50;99.90;;;;;;5045650;22;20042;-72
2022/05/21 08:56:17;;;;;;;11.65;2.83;;;17.60;99.90;;;;;;5037489;28;20129;-71
2022/05/21 08:58:48;;;;;;;11.20;2.78;;;17.50;99.90;;;;;;5038041;28;20033;-71
2022/05/21 09:01:18;;;;;;;6.68;2.20;;;17.40;99.90;;;;;;5016966;28;20083;-72
2022/05/21 09:03:44;;;;;;;8.25;2.50;;;17.60;99.90;;;;;;5028375;28;20486;-71
2022/05/21 09:06:19;;;;;;;7.25;2.20;;;17.50;99.90;;;;;;5035092;28;20033;-72
2022/05/21 09:09:02;;;;;;;7.88;2.42;;;17.40;99.90;;;;;;5036297;28;20025;-73
2022/05/21 09:11:34;;;;;;;6.80;2.70;;;17.40;99.90;;;;;;5030739;28;20087;-72
2022/05/21 09:14:03;;;;;;;10.20;2.00;;;17.40;99.90;;;;;;5017475;28;20044;-72
2022/05/21 09:16:56;;;;;;;9.25;2.08;;;17.50;99.90;;;;;;5017035;28;20030;-72
2022/05/21 09:19:32;;;;;;;7.15;2.10;;;17.30;99.90;;;;;;5019863;28;20147;-72
2022/05/21 09:22:05;;;;;;;10.75;2.40;;;17.10;99.90;;;;;;5037451;28;20403;-72
2022/05/21 09:24:45;;;;;;;5.45;2.20;;;17.10;99.90;;;;;;5042028;28;20026;-71
2022/05/21 09:27:36;;;;;;;10.95;3.00;;;17.30;99.90;;;;;;5037944;28;20041;-73
2022/05/21 09:30:22;;;;;;;16.60;3.50;;;17.20;99.90;;;;;;5037619;28;20029;-72
2022/05/21 09:32:52;;;;;;;6.63;2.50;;;17.30;99.90;;;;;;5034506;28;20029;-72
2022/05/21 09:35:31;;;;;;;8.52;2.78;;;17.40;99.90;;;;;;5024414;28;20029;-72
2022/05/21 09:38:14;;;;;;;8.68;2.40;;;17.40;99.90;;;;;;5034256;28;20022;-71
2022/05/21 09:40:40;;;;;;;8.15;2.67;;;17.50;99.90;;;;;;5022010;28;20033;-72
2022/05/21 09:46:18;;;;;;;10.30;2.30;;;17.60;99.90;;;;;;5041255;28;20032;-72
2022/05/21 09:48:46;;;;;;;11.18;3.05;;;17.70;99.90;;;;;;5020541;28;20033;-73
2022/05/21 09:51:41;;;;;;;17.65;3.25;;;17.60;99.90;;;;;;5036518;28;20025;-72
2022/05/21 09:54:21;;;;;;;11.13;2.85;;;17.50;99.90;;;;;;5027113;28;20458;-72
2022/05/21 09:56:52;;;;;;;11.37;2.87;;;17.40;99.90;;;;;;5018608;28;20025;-72
2022/05/21 09:59:21;;;;;;;14.02;2.80;;;17.30;99.90;;;;;;5036083;28;20022;-73
2022/05/21 10:01:50;;;;;;;5.43;2.13;;;17.30;99.90;;;;;;5034854;28;20487;-72
2022/05/21 10:04:34;;;;;;;8.23;3.05;;;17.30;99.90;;;;;;5035747;28;20477;-73
2022/05/21 10:06:59;;;;;;;18.20;3.40;;;17.40;99.90;;;;;;5034291;28;20029;-71
2022/05/21 10:12:34;;;;;;;12.10;2.58;;;17.30;99.90;;;;;;5034879;28;20359;-72
2022/05/21 10:15:09;;;;;;;10.25;2.55;;;17.30;99.90;;;;;;5023429;28;20458;-73
2022/05/21 10:17:42;;;;;;;9.60;2.67;;;17.30;99.90;;;;;;5034445;28;20025;-72
2022/05/21 10:20:15;;;;;;;14.02;2.50;;;17.40;99.90;;;;;;5034603;28;20029;-72
2022/05/21 10:23:08;;;;;;;7.78;2.53;;;17.60;99.90;;;;;;5035300;28;20022;-72
2022/05/21 10:25:59;;;;;;;7.05;2.15;;;17.90;99.90;;;;;;5032028;28;20028;-73
2022/05/21 10:28:44;;;;;;;8.18;2.78;;;18.00;99.90;;;;;;5026363;28;20022;-73
2022/05/21 10:31:19;;;;;;;12.30;2.70;;;18.10;99.90;;;;;;5035970;28;20163;-73
2022/05/21 10:33:58;;;;;;;9.27;2.13;;;18.00;99.90;;;;;;5035859;28;20039;-75
2022/05/21 10:36:39;;;;;;;8.93;2.20;;;17.90;99.90;;;;;;5030382;28;20032;-74
2022/05/21 10:39:04;;;;;;;8.25;2.63;;;17.90;99.90;;;;;;5028426;28;20032;-74
2022/05/21 10:41:45;;;;;;;9.40;2.22;;;18.10;99.90;;;;;;5034444;28;20030;-74
2022/05/21 10:44:14;;;;;;;11.93;2.13;;;18.10;99.90;;;;;;5035008;28;20033;-73
2022/05/21 10:47:03;;;;;;;7.32;2.00;;;18.00;99.90;;;;;;5026464;28;20029;-74
2022/05/21 10:49:43;;;;;;;13.23;2.38;;;18.20;99.90;;;;;;5015749;28;20352;-73
2022/05/21 10:52:17;;;;;;;8.63;2.67;;;18.40;99.90;;;;;;4997779;28;20026;-74
2022/05/21 10:55:19;;;;;;;5.53;1.80;;;18.30;99.90;;;;;;5003520;28;20040;-74
2022/05/21 10:57:52;;;;;;;7.13;2.40;;;18.30;99.90;;;;;;5034736;28;20050;-74
2022/05/21 11:00:20;;;;;;;5.20;1.88;;;18.20;99.90;;;;;;5034795;28;20026;-74
2022/05/21 11:03:24;;;;;;;5.93;1.88;;;18.10;99.90;;;;;;5035464;28;20430;-74
2022/05/21 11:05:55;;;;;;;10.02;1.63;;;17.80;99.90;;;;;;5035751;28;20014;-74
2022/05/21 11:08:39;;;;;;;;;;;17.70;99.90;;;;;;5018940;28;20021;-74
2022/05/21 11:11:11;;;;;;;7.25;2.05;;;17.60;99.90;;;;;;5035642;28;19912;-74
2022/05/21 11:13:46;;;;;;;7.53;2.13;;;17.60;99.90;;;;;;5035494;28;20382;-74
2022/05/21 11:16:20;;;;;;;12.55;2.05;;;17.70;99.90;;;;;;5035577;28;20029;-74
2022/05/21 11:19:06;;;;;;;5.57;2.13;;;17.70;99.90;;;;;;5034576;28;20030;-74
2022/05/21 11:21:35;;;;;;;4.93;1.98;;;17.70;99.90;;;;;;5033888;28;20047;-74
2022/05/21 11:24:27;;;;;;;9.68;1.95;;;17.80;99.90;;;;;;5035267;28;20021;-74
2022/05/21 11:27:09;;;;;;;5.03;1.77;;;17.90;99.90;;;;;;5028300;28;20037;-74
2022/05/21 11:30:15;;;;;;;7.70;2.15;;;17.80;99.90;;;;;;5034691;28;20097;-74
2022/05/21 11:38:39;;;;;;;6.32;2.03;;;17.70;99.90;;;;;;5034078;28;20037;-74
2022/05/21 11:41:29;;;;;;;12.05;2.13;;;17.90;99.90;;;;;;5034106;28;20447;-74
2022/05/21 11:47:07;;;;;;;4.82;1.75;;;18.00;99.90;;;;;;5023966;28;20025;-73
2022/05/21 11:49:41;;;;;;;8.48;1.92;;;18.30;99.90;;;;;;5006479;28;20021;-74
2022/05/21 11:52:25;;;;;;;8.38;2.17;;;18.60;99.90;;;;;;5023877;28;20376;-74
2022/05/21 11:54:51;;;;;;;8.52;2.03;;;19.00;99.90;;;;;;5005658;28;20037;-74
2022/05/21 11:57:35;;;;;;;7.82;1.67;;;19.30;99.90;;;;;;5022353;28;20033;-75
2022/05/21 12:00:06;;;;;;;6.60;1.90;;;19.40;99.90;;;;;;5022005;28;20030;-75
2022/05/21 12:02:33;;;;;;;;;;;19.30;99.90;;;;;;5007299;28;20471;-74
2022/05/21 12:05:09;;;;;;;6.95;1.85;;;19.00;99.90;;;;;;5027241;28;19909;-74
2022/05/21 12:07:41;;;;;;;10.80;2.28;;;18.60;99.90;;;;;;5033025;28;20383;-75
2022/05/21 12:10:12;;;;;;;;;;;18.60;99.90;;;;;;5035442;28;20479;-74
2022/05/21 12:12:59;;;;;;;3.80;1.67;;;18.80;99.90;;;;;;5033586;28;19996;-74
2022/05/21 12:15:46;;;;;;;6.38;1.77;;;18.90;99.90;;;;;;5033768;28;20035;-74
2022/05/21 12:18:30;;;;;;;4.55;1.80;;;19.10;99.90;;;;;;5031899;28;20101;-74
2022/05/21 12:20:56;;;;;;;6.97;1.88;;;19.40;99.90;;;;;;5029649;28;20033;-73
2022/05/21 12:23:33;;;;;;;5.70;1.70;;;19.70;99.90;;;;;;5025337;28;20041;-74
2022/05/21 12:26:12;;;;;;;7.65;2.08;;;19.80;99.90;;;;;;5022535;28;20438;-74
2022/05/21 12:28:44;;;;;;;8.65;1.80;;;19.70;99.90;;;;;;5024924;28;20021;-73
2022/05/21 12:31:14;;;;;;;7.22;1.73;;;19.70;99.90;;;;;;5035665;28;20109;-73
2022/05/21 12:33:49;;;;;;;6.25;1.33;;;19.40;99.90;;;;;;5035256;28;20034;-73
2022/05/21 12:36:39;;;;;;;5.15;1.70;;;19.20;99.90;;;;;;5026101;28;20029;-74
2022/05/21 12:39:08;;;;;;;6.70;1.83;;;19.10;99.90;;;;;;5027365;28;20030;-74
2022/05/21 12:41:39;;;;;;;6.13;1.92;;;19.20;99.90;;;;;;5023890;28;20367;-74
2022/05/21 12:44:05;;;;;;;4.72;2.78;;;19.40;99.90;;;;;;5027824;28;20018;-74
2022/05/21 12:46:35;;;;;;;8.00;2.10;;;19.40;99.90;;;;;;5026790;28;20026;-74
2022/05/21 12:49:04;;;;;;;6.63;1.52;;;19.40;99.90;;;;;;5025130;28;20057;-75
2022/05/21 12:51:40;;;;;;;4.07;1.58;;;19.30;99.90;;;;;;5024223;28;20095;-74
2022/05/21 12:54:21;;;;;;;6.45;1.85;;;19.50;99.90;;;;;;5011699;28;20037;-75
2022/05/21 12:56:47;;;;;;;4.82;1.67;;;19.90;99.90;;;;;;5024699;28;20073;-75
2022/05/21 12:59:27;;;;;;;6.15;1.63;;;20.20;99.90;;;;;;5021560;28;20037;-75
2022/05/21 13:02:13;;;;;;;5.72;1.67;;;20.40;99.90;;;;;;5023469;28;20021;-75
2022/05/21 13:04:42;;;;;;;9.07;1.70;;;20.40;99.90;;;;;;5005706;28;20026;-75
2022/05/21 13:07:19;;;;;;;6.25;1.85;;;20.30;99.90;;;;;;5025146;28;20426;-74
2022/05/21 13:10:02;;;;;;;6.60;1.58;;;20.00;99.90;;;;;;5024687;28;20100;-75
2022/05/21 13:12:40;;;;;;;5.80;1.77;;;19.60;99.90;;;;;;5030620;28;20482;-75
2022/05/21 13:15:10;;;;;;;6.18;1.63;;;19.40;99.90;;;;;;5007184;28;20022;-75
2022/05/21 13:18:18;;;;;;;6.65;1.67;;;19.40;99.90;;;;;;5026533;28;20071;-75
2022/05/21 13:20:59;;;;;;;12.10;2.00;;;19.50;99.90;;;;;;4992977;28;20462;-74
2022/05/21 13:23:53;;;;;;;6.82;1.77;;;19.50;99.90;;;;;;5024637;28;20037;-72
2022/05/21 13:26:22;;;;;;;9.55;2.33;;;19.40;99.90;;;;;;5022215;28;20080;-72
2022/05/21 13:28:48;;;;;;;7.25;1.63;;;19.30;99.90;;;;;;5023539;28;20082;-72